HECA/CAI METAR and TAF weather

Enter ICAO airport designator
Station Type Date Time Source
HECA METAR 2018/06/25 02:00 UTC NOAA

HECA 250200Z 04009KT CAVOK 24/21 Q1010 NOSIG


Station Type Date Time Source
HECA Decoded METAR 2018/06/25 02:00 UTC NOAA

Cairo Airport, Egypt (HECA) 30-08N 031-24E 74M
Jun 24, 2018 - 10:00 PM EDT / 2018.06.25 0200 UTC
Wind: from the NE (040 degrees) at 10 MPH (9 KT):0
Visibility: greater than 7 mile(s):0
Temperature: 75 F (24 C)
Dew Point: 69 F (21 C)
Relative Humidity: 83%
Pressure (altimeter): 29.83 in. Hg (1010 hPa)
ob: HECA 250200Z 04009KT CAVOK 24/21 Q1010 NOSIG
cycle: 2

Station Type Date Time Source
HECA TAF 2018/06/24 18:40 UTC NOAA

TAF HECA 241700Z 2418/2524 35010KT CAVOK PROB30
TEMPO 2503/2506 VRB03KT 4000 BR NSC


Example: see airport list